createdAt,value
2022-11-24T00:01:47.839Z,49.50
2022-11-24T00:04:20.188Z,54.20
2022-11-24T00:06:49.016Z,57.00
2022-11-24T00:09:21.894Z,50.90
2022-11-24T00:11:50.611Z,50.00
2022-11-24T00:14:20.038Z,48.00
2022-11-24T00:16:50.629Z,54.90
2022-11-24T00:19:22.218Z,52.90
2022-11-24T00:21:51.480Z,50.50
2022-11-24T00:24:20.703Z,53.60
2022-11-24T00:26:59.985Z,51.50
2022-11-24T00:29:29.204Z,47.00
2022-11-24T00:32:12.093Z,44.80
2022-11-24T00:34:42.967Z,45.00
2022-11-24T00:37:13.338Z,46.50
2022-11-24T00:39:42.690Z,48.10
2022-11-24T00:42:12.877Z,43.10
2022-11-24T00:44:42.247Z,35.00
2022-11-24T00:47:11.670Z,40.20
2022-11-24T00:49:41.126Z,41.10
2022-11-24T00:52:10.147Z,40.60
2022-11-24T00:54:40.152Z,44.60
2022-11-24T00:57:09.590Z,35.30
2022-11-24T00:59:38.726Z,32.50
2022-11-24T01:02:09.215Z,37.80
2022-11-24T01:04:38.938Z,39.90
2022-11-24T01:07:08.471Z,36.50
2022-11-24T01:09:38.258Z,36.60
2022-11-24T01:12:09.202Z,36.60
2022-11-24T01:14:51.819Z,34.80
2022-11-24T01:17:21.198Z,34.90
2022-11-24T01:19:51.174Z,33.40
2022-11-24T01:22:20.308Z,35.40
2022-11-24T01:24:49.128Z,31.80
2022-11-24T01:27:17.750Z,27.50
2022-11-24T01:29:48.675Z,26.10
2022-11-24T01:32:17.374Z,28.50
2022-11-24T01:34:46.929Z,32.10
2022-11-24T01:37:16.181Z,30.20
2022-11-24T01:39:45.568Z,29.40
2022-11-24T01:42:15.007Z,29.70
2022-11-24T01:44:46.438Z,26.40
2022-11-24T01:47:34.021Z,29.20
2022-11-24T01:50:17.044Z,31.70
2022-11-24T01:52:57.363Z,39.00
2022-11-24T01:55:38.924Z,29.50
2022-11-24T01:58:16.549Z,31.80
2022-11-24T02:00:47.876Z,36.90
2022-11-24T02:03:27.821Z,35.60
2022-11-24T02:06:32.669Z,32.80
2022-11-24T02:09:23.575Z,34.40
2022-11-24T02:11:56.398Z,33.70
2022-11-24T02:14:29.362Z,32.00
2022-11-24T02:16:58.626Z,34.10
2022-11-24T02:19:41.915Z,29.40
2022-11-24T02:22:21.914Z,28.30
2022-11-24T02:25:02.083Z,29.50
2022-11-24T02:27:31.500Z,29.80
2022-11-24T02:30:00.510Z,29.10
2022-11-24T02:32:31.797Z,34.20
2022-11-24T02:35:08.246Z,32.30
2022-11-24T02:37:51.743Z,29.40
2022-11-24T02:40:26.858Z,26.40
2022-11-24T02:43:06.353Z,28.50
2022-11-24T02:45:35.241Z,24.40
2022-11-24T02:48:28.852Z,21.40
2022-11-24T02:50:57.467Z,25.50
2022-11-24T02:53:26.111Z,23.60
2022-11-24T02:55:54.604Z,25.30
2022-11-24T02:58:23.009Z,22.00
2022-11-24T03:00:57.930Z,24.40
2022-11-24T03:03:29.520Z,24.30
2022-11-24T03:05:58.293Z,23.10
2022-11-24T03:08:30.447Z,26.90
2022-11-24T03:10:59.461Z,23.30
2022-11-24T03:13:28.694Z,27.00
2022-11-24T03:16:00.288Z,26.20
2022-11-24T03:18:29.353Z,30.20
2022-11-24T03:21:13.185Z,27.60
2022-11-24T03:23:41.703Z,27.50
2022-11-24T03:26:12.510Z,27.30
2022-11-24T03:28:42.216Z,27.60
2022-11-24T03:31:12.840Z,30.60
2022-11-24T03:33:41.956Z,26.00
2022-11-24T03:36:10.920Z,29.90
2022-11-24T03:38:42.491Z,27.70
2022-11-24T03:41:11.414Z,31.10
2022-11-24T03:43:43.752Z,28.60
2022-11-24T03:46:13.513Z,27.20
2022-11-24T03:48:42.261Z,26.70
2022-11-24T03:51:12.258Z,34.10
2022-11-24T03:53:41.440Z,29.10
2022-11-24T03:56:10.931Z,27.90
2022-11-24T03:58:39.717Z,29.20
2022-11-24T04:01:08.780Z,28.70
2022-11-24T04:03:37.839Z,27.50
2022-11-24T04:06:07.121Z,29.10
2022-11-24T04:08:36.238Z,24.80
2022-11-24T04:11:10.255Z,28.90
2022-11-24T04:13:39.151Z,26.50
2022-11-24T04:16:08.269Z,28.10
2022-11-24T04:18:37.057Z,29.00
2022-11-24T04:21:05.701Z,28.10
2022-11-24T04:23:34.165Z,27.40
2022-11-24T04:26:02.714Z,29.30
2022-11-24T04:28:31.195Z,28.40
2022-11-24T04:31:03.712Z,28.50
2022-11-24T04:33:33.415Z,23.40
2022-11-24T04:36:01.737Z,23.20
2022-11-24T04:39:25.671Z,27.10
2022-11-24T04:41:30.458Z,23.20
2022-11-24T04:43:59.066Z,25.30
2022-11-24T04:46:27.825Z,24.80
2022-11-24T04:52:39.008Z,24.00
2022-11-24T04:55:08.988Z,19.40
2022-11-24T04:57:37.635Z,21.50
2022-11-24T05:00:06.907Z,24.10
2022-11-24T05:02:35.173Z,21.80
2022-11-24T05:05:09.027Z,20.50
2022-11-24T05:07:37.821Z,21.20
2022-11-24T05:10:25.438Z,22.70
2022-11-24T05:12:56.681Z,16.80
2022-11-24T05:15:25.242Z,16.40
2022-11-24T05:17:53.798Z,12.30
2022-11-24T05:20:22.522Z,11.80
2022-11-24T05:22:51.518Z,13.10
2022-11-24T05:25:21.053Z,10.70
2022-11-24T05:27:49.481Z,8.90
2022-11-24T05:30:17.965Z,7.90
2022-11-24T05:32:46.550Z,6.90
2022-11-24T05:35:17.432Z,7.20
2022-11-24T05:37:46.027Z,6.60
2022-11-24T05:40:15.192Z,6.80
2022-11-24T05:42:47.639Z,5.80
2022-11-24T05:45:19.778Z,5.80
2022-11-24T05:47:51.317Z,7.50
2022-11-24T05:50:23.915Z,5.80
2022-11-24T05:52:54.190Z,4.30
2022-11-24T05:55:23.191Z,4.80
2022-11-24T05:57:59.297Z,7.30
2022-11-24T06:00:31.054Z,5.00
2022-11-24T06:03:00.299Z,6.50
2022-11-24T06:05:30.504Z,6.10
2022-11-24T06:08:00.770Z,4.50
2022-11-24T06:10:29.963Z,5.60
2022-11-24T06:12:58.287Z,4.60
2022-11-24T06:15:27.214Z,5.30
2022-11-24T06:17:56.883Z,4.30
2022-11-24T06:20:31.169Z,4.30
2022-11-24T06:23:06.182Z,7.70
2022-11-24T06:25:34.918Z,4.60
2022-11-24T06:28:05.515Z,3.90
2022-11-24T06:30:34.188Z,4.20
2022-11-24T06:33:02.748Z,3.60
2022-11-24T06:35:31.621Z,3.70
2022-11-24T06:38:03.091Z,4.20
2022-11-24T06:40:32.079Z,4.30
2022-11-24T06:43:03.072Z,7.40
2022-11-24T06:45:32.097Z,5.30
2022-11-24T06:48:00.684Z,4.10
2022-11-24T06:50:33.583Z,5.10
2022-11-24T06:53:05.960Z,3.10
2022-11-24T06:55:41.296Z,4.10
2022-11-24T06:58:09.726Z,3.00
2022-11-24T07:00:39.903Z,3.50
2022-11-24T07:03:16.983Z,4.20
2022-11-24T07:05:47.161Z,2.80
2022-11-24T07:08:22.893Z,3.70
2022-11-24T07:10:52.879Z,4.20
2022-11-24T07:13:21.580Z,6.70
2022-11-24T07:15:49.747Z,6.60
2022-11-24T07:18:18.010Z,4.80
2022-11-24T07:20:46.833Z,4.60
2022-11-24T07:23:15.330Z,3.90
2022-11-24T07:25:44.433Z,4.80
2022-11-24T07:28:15.047Z,4.30
2022-11-24T07:30:43.243Z,4.20
2022-11-24T07:33:12.916Z,4.20
2022-11-24T07:35:45.267Z,5.80
2022-11-24T07:38:13.959Z,5.10
2022-11-24T07:40:43.243Z,4.90
2022-11-24T07:43:15.807Z,5.30
2022-11-24T07:45:52.776Z,4.60
2022-11-24T07:48:26.603Z,3.50
2022-11-24T07:50:56.480Z,4.30
2022-11-24T07:53:38.666Z,4.00
2022-11-24T07:56:08.254Z,6.50
2022-11-24T07:58:38.004Z,5.10
2022-11-24T08:01:13.881Z,4.90
2022-11-24T08:03:43.672Z,5.00
2022-11-24T08:06:24.458Z,5.70
2022-11-24T08:08:55.366Z,4.70
2022-11-24T08:11:26.556Z,5.30
2022-11-24T08:13:55.069Z,4.40
2022-11-24T08:16:23.651Z,5.40
2022-11-24T08:18:54.072Z,4.60
2022-11-24T08:21:23.779Z,5.10
2022-11-24T08:23:59.451Z,4.20
2022-11-24T08:26:28.678Z,4.80
2022-11-24T08:29:08.079Z,5.90
2022-11-24T08:31:41.947Z,5.10
2022-11-24T08:34:14.979Z,8.00
2022-11-24T08:36:43.128Z,5.20
2022-11-24T08:39:15.899Z,6.30
2022-11-24T08:41:45.091Z,4.80
2022-11-24T08:44:16.119Z,6.30
2022-11-24T08:46:45.288Z,5.90
2022-11-24T08:49:15.282Z,9.60
2022-11-24T08:51:43.678Z,8.20
2022-11-24T08:54:15.398Z,6.60
2022-11-24T08:56:43.794Z,7.00
2022-11-24T08:59:15.144Z,6.70
2022-11-24T09:01:44.926Z,6.20
2022-11-24T09:04:14.611Z,7.20
2022-11-24T09:06:42.882Z,7.80
2022-11-24T09:09:12.090Z,6.70
2022-11-24T09:11:40.376Z,8.10
2022-11-24T09:14:10.425Z,6.50
2022-11-24T09:16:40.934Z,6.10
2022-11-24T09:19:10.343Z,6.00
2022-11-24T09:21:40.127Z,8.30
2022-11-24T09:24:12.414Z,7.40
2022-11-24T09:26:46.139Z,7.50
2022-11-24T09:29:16.570Z,5.60
2022-11-24T09:31:44.983Z,6.40
2022-11-24T09:34:15.806Z,6.80
2022-11-24T09:36:44.209Z,7.20
2022-11-24T09:39:12.711Z,8.40
2022-11-24T09:42:18.346Z,8.30
2022-11-24T09:45:00.449Z,6.20
2022-11-24T09:48:16.387Z,8.10
2022-11-24T09:50:48.606Z,5.90
2022-11-24T09:53:22.912Z,7.70
2022-11-24T09:55:55.526Z,6.70
2022-11-24T09:59:14.676Z,5.20
2022-11-24T10:01:45.536Z,5.50
2022-11-24T10:04:24.189Z,8.60
2022-11-24T10:07:17.108Z,11.00
2022-11-24T10:10:18.517Z,7.60
2022-11-24T10:13:18.330Z,5.60
2022-11-24T10:16:04.855Z,11.80
2022-11-24T10:19:02.295Z,7.90
2022-11-24T10:21:48.889Z,4.80
2022-11-24T10:24:19.578Z,4.60
2022-11-24T10:27:10.881Z,4.90
2022-11-24T10:29:41.663Z,6.30
2022-11-24T10:32:26.859Z,4.50
2022-11-24T10:35:16.046Z,4.60
2022-11-24T10:37:53.065Z,4.40
2022-11-24T10:43:28.187Z,5.70
2022-11-24T10:46:24.702Z,5.00
2022-11-24T10:49:05.515Z,5.70
2022-11-24T10:51:53.720Z,7.10
2022-11-24T10:54:24.579Z,7.10
2022-11-24T10:56:55.225Z,5.30
2022-11-24T10:59:28.029Z,5.20
2022-11-24T11:01:56.786Z,4.90
2022-11-24T11:04:36.388Z,6.80
2022-11-24T11:07:15.536Z,5.80
2022-11-24T11:09:45.672Z,6.60
2022-11-24T11:12:45.727Z,6.30
2022-11-24T11:15:31.750Z,6.50
2022-11-24T11:18:01.491Z,4.70
2022-11-24T11:20:33.346Z,6.90
2022-11-24T11:23:16.699Z,9.90
2022-11-24T11:26:16.857Z,12.00
2022-11-24T11:35:05.991Z,8.10
2022-11-24T11:37:34.918Z,6.80
2022-11-24T11:40:04.028Z,7.30
2022-11-24T11:45:30.821Z,7.60
2022-11-24T11:48:02.021Z,8.80
2022-11-24T11:51:21.048Z,9.00
2022-11-24T11:54:07.532Z,10.10
2022-11-24T11:56:45.787Z,9.50
2022-11-24T11:59:52.753Z,9.40
2022-11-24T12:02:39.358Z,8.60
2022-11-24T12:07:48.848Z,8.00
2022-11-24T12:10:31.070Z,11.10
2022-11-24T12:13:21.169Z,11.80
2022-11-24T12:16:11.918Z,8.10
2022-11-24T12:22:18.511Z,8.30
2022-11-24T12:25:12.565Z,9.20
2022-11-24T12:28:11.900Z,9.70
2022-11-24T12:31:10.808Z,9.60
2022-11-24T12:34:00.923Z,9.80
2022-11-24T12:36:52.393Z,10.20
2022-11-24T12:39:20.750Z,10.20
2022-11-24T12:42:12.485Z,10.90
2022-11-24T12:45:06.582Z,9.50
2022-11-24T12:48:05.911Z,9.00
2022-11-24T12:50:39.973Z,11.20
2022-11-24T12:53:34.862Z,7.90
2022-11-24T12:56:09.756Z,7.00
2022-11-24T13:02:55.435Z,11.20
2022-11-24T13:06:05.546Z,8.60
2022-11-24T13:08:37.220Z,7.10
2022-11-24T13:11:24.176Z,11.30
2022-11-24T13:14:01.141Z,8.80
2022-11-24T13:16:44.429Z,8.60
2022-11-24T13:20:12.379Z,9.40
2022-11-24T13:22:47.694Z,7.70
2022-11-24T13:25:37.791Z,8.50
2022-11-24T13:29:00.682Z,8.90
2022-11-24T13:31:39.682Z,8.20
2022-11-24T13:34:39.249Z,6.30
2022-11-24T13:37:39.911Z,8.50
2022-11-24T13:40:14.410Z,7.90
2022-11-24T13:42:55.311Z,12.50
2022-11-24T13:45:54.191Z,7.00
2022-11-24T13:53:13.481Z,6.80
2022-11-24T13:56:45.055Z,11.60
2022-11-24T13:59:27.684Z,11.60
2022-11-24T14:01:59.440Z,8.50
2022-11-24T14:04:31.120Z,11.60
2022-11-24T14:07:15.235Z,6.40
2022-11-24T14:09:48.563Z,6.70
2022-11-24T14:12:31.802Z,7.70
2022-11-24T14:15:28.668Z,9.70
2022-11-24T14:17:57.743Z,7.40
2022-11-24T14:20:35.250Z,15.80
2022-11-24T14:23:06.573Z,11.50
2022-11-24T14:25:36.252Z,15.50
2022-11-24T14:28:35.705Z,10.40
2022-11-24T14:31:09.468Z,17.00
2022-11-24T14:33:37.987Z,19.50
2022-11-24T14:36:22.526Z,14.70
2022-11-24T14:38:51.717Z,15.90
2022-11-24T14:41:28.789Z,8.40
2022-11-24T14:44:28.799Z,10.10
2022-11-24T14:47:19.010Z,19.60
2022-11-24T14:49:47.371Z,9.40
2022-11-24T14:52:18.799Z,8.40
2022-11-24T14:55:22.884Z,5.90
2022-11-24T14:57:54.118Z,8.40
2022-11-24T15:00:32.408Z,7.00
2022-11-24T15:03:00.810Z,6.40
2022-11-24T15:05:50.980Z,8.00
2022-11-24T15:08:20.521Z,6.40
2022-11-24T15:10:49.627Z,6.10
2022-11-24T15:17:02.908Z,7.10
2022-11-24T15:19:36.505Z,6.30
2022-11-24T15:22:46.271Z,6.50
2022-11-24T15:25:26.737Z,6.90
2022-11-24T15:27:56.686Z,10.50
2022-11-24T15:30:25.046Z,7.00
2022-11-24T15:33:05.291Z,6.30
2022-11-24T15:35:34.619Z,6.70
2022-11-24T15:38:02.872Z,7.60
2022-11-24T15:40:31.927Z,7.80
2022-11-24T15:43:06.256Z,12.90
2022-11-24T15:45:39.243Z,8.90
2022-11-24T17:57:13.807Z,10.70
2022-11-24T17:59:42.120Z,11.30
2022-11-24T18:02:10.604Z,10.80
2022-11-24T18:04:39.033Z,9.00
2022-11-24T18:15:39.707Z,12.20
2022-11-24T18:18:08.266Z,10.60
2022-11-24T18:20:36.609Z,11.90
2022-11-24T18:23:06.378Z,14.50
2022-11-24T18:25:37.392Z,13.90
2022-11-24T18:28:05.760Z,10.10
2022-11-24T18:30:34.360Z,12.20
2022-11-24T18:33:36.507Z,10.30
2022-11-24T18:36:07.516Z,7.50
2022-11-24T18:38:39.634Z,9.30
2022-11-24T18:41:13.089Z,11.10
2022-11-24T18:43:42.956Z,9.40
